Time;durP1;ratioP1;P1;durP2;ratioP2;P2;SDS_P1;SDS_P2;PMS_P1;PMS_P2;Temp;Humidity;BMP_temperature;BMP_pressure;BME280_temperature;BME280_humidity;BME280_pressure;Samples;Min_cycle;Max_cycle;Signal;HPM_P1;HPM_P2
2023/08/26 00:00:07;;;;;;;;;;;;;;;23.58;100.00;97529.69;5060831;28;19925;-79
2023/08/26 00:02:34;;;;;;;;;;;;;;;24.17;100.00;97536.78;5060897;28;19924;-79
2023/08/26 00:05:01;;;;;;;;;;;;;;;24.61;100.00;97540.75;5057410;28;19944;-79
2023/08/26 00:07:27;;;;;;;;;;;;;;;24.85;100.00;97525.97;5057933;28;19955;-80
2023/08/26 00:09:54;;;;;;;;;;;;;;;24.95;100.00;97513.63;5060497;28;19925;-80
2023/08/26 00:12:21;;;;;;;;;;;;;;;25.08;100.00;97493.16;5060662;28;19925;-80
2023/08/26 00:14:48;;;;;;;;;;;;;;;25.07;100.00;97477.91;5058287;28;20175;-80
2023/08/26 00:17:14;;;;;;;;;;;;;;;24.76;100.00;97468.03;5062188;28;19956;-80
2023/08/26 00:19:42;;;;;;;;;;;;;;;24.55;100.00;97473.94;5060622;28;19933;-80
2023/08/26 00:22:09;;;;;;;;;;;;;;;24.55;100.00;97462.22;5060470;28;19925;-79
2023/08/26 00:24:36;;;;;;;;;;;;;;;24.19;100.00;97463.56;5058749;28;19988;-80
2023/08/26 00:27:02;;;;;;;;;;;;;;;23.90;100.00;97453.22;5057474;28;19956;-80
2023/08/26 00:29:30;;;;;;;;;;;;;;;23.96;100.00;97440.88;5059203;28;19920;-80
2023/08/26 00:31:57;;;;;;;;;;;;;;;23.81;100.00;97441.75;5061830;28;19936;-80
2023/08/26 00:34:23;;;;;;;;;;;;;;;23.60;100.00;97429.28;5060485;28;19924;-80
2023/08/26 00:36:49;;;;;;;;;;;;;;;23.51;100.00;97415.09;5057968;28;19932;-80
2023/08/26 00:39:16;;;;;;;;;;;;;;;23.37;100.00;97420.22;5057750;28;19929;-80
2023/08/26 00:41:42;;;;;;;;;;;;;;;23.56;100.00;97417.53;5055951;28;19925;-80
2023/08/26 00:44:08;;;;;;;;;;;;;;;23.47;100.00;97413.44;5056897;28;19962;-80
2023/08/26 00:46:37;;;;;;;;;;;;;;;23.21;100.00;97394.19;5059520;28;19964;-79
2023/08/26 00:49:03;;;;;;;;;;;;;;;23.02;100.00;97401.19;5061218;28;19931;-79
2023/08/26 00:51:39;;;;;;;;;;;;;;;22.98;100.00;97405.75;5065003;28;19912;-79
2023/08/26 00:54:06;;;;;;;;;;;;;;;23.04;100.00;97396.16;5061556;28;19964;-80
2023/08/26 00:56:33;;;;;;;;;;;;;;;22.89;100.00;97402.44;5064594;28;19929;-79
2023/08/26 00:58:59;;;;;;;;;;;;;;;22.69;100.00;97400.00;5065187;28;19925;-79
2023/08/26 01:01:27;;;;;;;;;;;;;;;22.71;100.00;97403.97;5063967;28;19928;-79
2023/08/26 01:03:54;;;;;;;;;;;;;;;22.95;100.00;97409.19;5061537;28;19925;-79
2023/08/26 01:06:21;;;;;;;;;;;;;;;23.03;100.00;97393.78;5060447;28;19925;-80
2023/08/26 01:08:47;;;;;;;;;;;;;;;23.00;100.00;97389.06;5063626;28;19967;-80
2023/08/26 01:11:17;;;;;;;;;;;;;;;22.97;100.00;97387.84;5064125;28;19925;-80
2023/08/26 01:13:51;;;;;;;;;;;;;;;23.28;100.00;97394.31;5061359;28;19952;-80
2023/08/26 01:16:18;;;;;;;;;;;;;;;23.50;100.00;97388.97;5067811;28;19935;-80
2023/08/26 01:18:45;;;;;;;;;;;;;;;23.55;100.00;97396.84;5064730;28;19929;-80
2023/08/26 01:21:14;;;;;;;;;;;;;;;23.57;100.00;97386.41;5064882;28;19932;-80
2023/08/26 01:23:42;;;;;;;;;;;;;;;23.56;100.00;97393.00;5067701;28;19921;-80
2023/08/26 01:26:09;;;;;;;;;;;;;;;23.64;100.00;97391.97;5070405;28;19916;-80
2023/08/26 01:28:38;;;;;;;;;;;;;;;23.81;100.00;97395.41;5066517;28;19921;-80
2023/08/26 01:31:08;;;;;;;;;;;;;;;24.42;100.00;97395.31;5064234;28;19929;-80
2023/08/26 01:33:36;;;;;;;;;;;;;;;24.35;100.00;97398.75;5062582;28;19936;-79
2023/08/26 01:36:04;;;;;;;;;;;;;;;24.63;100.00;97391.00;5063665;28;19924;-79
2023/08/26 01:38:31;;;;;;;;;;;;;;;24.13;100.00;97394.88;5063944;28;19924;-79
2023/08/26 01:41:02;;;;;;;;;;;;;;;24.29;100.00;97380.31;5061484;28;19925;-81
2023/08/26 01:43:29;;;;;;;;;;;;;;;24.09;100.00;97396.72;5060459;28;19987;-79
2023/08/26 01:45:55;;;;;;;;;;;;;;;24.04;100.00;97388.84;5068089;28;19925;-79
2023/08/26 01:48:21;;;;;;;;;;;;;;;24.08;100.00;97392.41;5064133;28;19933;-80
2023/08/26 01:50:48;;;;;;;;;;;;;;;23.69;100.00;97387.38;5060916;28;19925;-79
2023/08/26 01:53:14;;;;;;;;;;;;;;;23.45;100.00;97389.28;5061340;28;19925;-79
2023/08/26 01:55:40;;;;;;;;;;;;;;;23.57;100.00;97394.56;5062954;28;20405;-79
2023/08/26 01:58:08;;;;;;;;;;;;;;;23.96;100.00;97397.22;5064069;28;20057;-79
2023/08/26 02:00:35;;;;;;;;;;;;;;;24.44;100.00;97390.31;5061577;28;19924;-79
2023/08/26 02:03:01;;;;;;;;;;;;;;;24.71;100.00;97405.56;5058878;28;19940;-79
2023/08/26 02:05:27;;;;;;;;;;;;;;;24.80;100.00;97402.56;5059530;28;19983;-79
2023/08/26 02:07:55;;;;;;;;;;;;;;;24.68;100.00;97389.91;5062801;28;19921;-79
2023/08/26 02:10:21;;;;;;;;;;;;;;;24.57;100.00;97388.97;5063828;28;20261;-79
2023/08/26 02:12:48;;;;;;;;;;;;;;;24.62;100.00;97391.38;5059268;28;19948;-79
2023/08/26 02:15:16;;;;;;;;;;;;;;;24.64;100.00;97384.38;5062846;28;19925;-79
2023/08/26 02:17:42;;;;;;;;;;;;;;;24.54;100.00;97374.06;5062558;28;19925;-79
2023/08/26 02:20:09;;;;;;;;;;;;;;;24.60;100.00;97378.06;5064305;28;20403;-79
2023/08/26 02:22:36;;;;;;;;;;;;;;;24.96;100.00;97384.88;5062042;28;19990;-79
2023/08/26 02:25:03;;;;;;;;;;;;;;;25.00;100.00;97387.66;5052726;28;19940;-79
2023/08/26 02:27:29;;;;;;;;;;;;;;;25.07;100.00;97388.53;5060135;28;19947;-79
2023/08/26 02:29:55;;;;;;;;;;;;;;;25.21;100.00;97399.69;5060392;28;19960;-79
2023/08/26 02:32:23;;;;;;;;;;;;;;;25.30;100.00;97404.84;5059334;28;20440;-79
2023/08/26 02:34:50;;;;;;;;;;;;;;;25.35;100.00;97412.72;5062552;28;19925;-79
2023/08/26 02:37:16;;;;;;;;;;;;;;;25.39;100.00;97427.22;5063680;28;19925;-79
2023/08/26 02:39:42;;;;;;;;;;;;;;;25.44;100.00;97437.06;5060263;28;19936;-79
2023/08/26 02:42:09;;;;;;;;;;;;;;;25.43;100.00;97436.28;5058612;28;19932;-79
2023/08/26 02:44:35;;;;;;;;;;;;;;;25.45;100.00;97436.69;5060679;28;19921;-80
2023/08/26 02:47:04;;;;;;;;;;;;;;;25.49;100.00;97434.81;5065423;28;19967;-80
2023/08/26 02:49:31;;;;;;;;;;;;;;;25.51;100.00;97445.38;5058980;28;19949;-80
2023/08/26 02:51:58;;;;;;;;;;;;;;;25.53;100.00;97443.06;5061907;28;19928;-80
2023/08/26 02:54:25;;;;;;;;;;;;;;;25.49;100.00;97445.75;5063379;28;19935;-80
2023/08/26 02:56:51;;;;;;;;;;;;;;;25.47;100.00;97436.31;5050594;28;19996;-80
2023/08/26 02:59:18;;;;;;;;;;;;;;;25.43;100.00;97449.16;5054722;28;19925;-79
2023/08/26 03:01:45;;;;;;;;;;;;;;;25.45;100.00;97449.56;5050554;28;19960;-79
2023/08/26 03:04:11;;;;;;;;;;;;;;;25.43;100.00;97458.16;5050530;28;19925;-79
2023/08/26 03:06:39;;;;;;;;;;;;;;;25.43;100.00;97458.16;5058928;28;19960;-80
2023/08/26 03:09:06;;;;;;;;;;;;;;;25.41;100.00;97449.50;5052543;28;19925;-80
2023/08/26 03:11:32;;;;;;;;;;;;;;;25.42;100.00;97458.50;5070671;28;19913;-80
2023/08/26 03:13:59;;;;;;;;;;;;;;;25.43;100.00;97452.69;5062246;28;19925;-80
2023/08/26 03:16:25;;;;;;;;;;;;;;;25.38;100.00;97461.19;5065242;28;19925;-80
2023/08/26 03:18:52;;;;;;;;;;;;;;;25.32;100.00;97468.13;5058167;28;19974;-80
2023/08/26 03:21:19;;;;;;;;;;;;;;;25.16;100.00;97449.16;5058250;28;19976;-80
2023/08/26 03:23:46;;;;;;;;;;;;;;;25.09;100.00;97453.75;5061601;28;19929;-79
2023/08/26 03:26:13;;;;;;;;;;;;;;;25.22;100.00;97463.31;5062658;28;20296;-80
2023/08/26 03:28:40;;;;;;;;;;;;;;;25.28;100.00;97464.56;5060547;28;19932;-80
2023/08/26 03:31:06;;;;;;;;;;;;;;;25.28;100.00;97471.97;5060325;28;20312;-80
2023/08/26 03:33:33;;;;;;;;;;;;;;;24.90;100.00;97472.97;5061091;28;19971;-79
2023/08/26 03:36:02;;;;;;;;;;;;;;;24.78;100.00;97487.59;5063555;28;19931;-79
2023/08/26 03:38:29;;;;;;;;;;;;;;;24.45;100.00;97490.91;5062236;28;19936;-79
2023/08/26 03:40:57;;;;;;;;;;;;;;;24.61;100.00;97491.59;5057614;28;19925;-79
2023/08/26 03:43:23;;;;;;;;;;;;;;;24.61;100.00;97490.81;5057378;28;19925;-79
2023/08/26 03:45:50;;;;;;;;;;;;;;;24.86;100.00;97488.50;5065741;28;19925;-79
2023/08/26 03:48:16;;;;;;;;;;;;;;;25.00;100.00;97489.53;5062125;28;19975;-79
2023/08/26 03:50:49;;;;;;;;;;;;;;;25.11;100.00;97492.41;5059664;28;19920;-79
2023/08/26 03:53:15;;;;;;;;;;;;;;;25.18;100.00;97504.25;5058635;28;19936;-79
2023/08/26 03:55:42;;;;;;;;;;;;;;;25.27;100.00;97506.72;5059726;28;20036;-79
2023/08/26 03:58:10;;;;;;;;;;;;;;;25.26;100.00;97507.88;5061885;28;19928;-79
2023/08/26 04:00:36;;;;;;;;;;;;;;;25.26;100.00;97507.88;5058853;28;19980;-80
2023/08/26 04:03:03;;;;;;;;;;;;;;;25.30;100.00;97518.84;5057060;28;19925;-80
2023/08/26 04:05:29;;;;;;;;;;;;;;;25.34;100.00;97520.50;5058903;28;19925;-80
2023/08/26 04:07:56;;;;;;;;;;;;;;;25.36;100.00;97531.06;5060513;28;19982;-79
2023/08/26 04:10:22;;;;;;;;;;;;;;;25.39;100.00;97539.31;5060360;28;19925;-79
2023/08/26 04:12:48;;;;;;;;;;;;;;;25.40;100.00;97551.84;5056891;28;19929;-79
2023/08/26 04:15:18;;;;;;;;;;;;;;;25.40;100.00;97553.78;5060630;28;19925;-80
2023/08/26 04:17:44;;;;;;;;;;;;;;;25.43;100.00;97551.09;5061561;28;20008;-80
2023/08/26 04:20:12;;;;;;;;;;;;;;;25.44;100.00;97554.63;5060406;28;19959;-80
2023/08/26 04:22:38;;;;;;;;;;;;;;;25.41;100.00;97547.91;5059832;28;19928;-80
2023/08/26 04:25:05;;;;;;;;;;;;;;;25.42;100.00;97544.03;5057254;28;19936;-80
2023/08/26 04:27:34;;;;;;;;;;;;;;;25.40;100.00;97551.84;5057823;28;19941;-80
2023/08/26 04:30:00;;;;;;;;;;;;;;;25.17;100.00;97557.31;5060430;28;19925;-79
2023/08/26 04:32:28;;;;;;;;;;;;;;;25.18;100.00;97555.38;5058314;28;19935;-79
2023/08/26 04:34:54;;;;;;;;;;;;;;;25.17;100.00;97559.28;5060007;28;19936;-79
2023/08/26 04:37:22;;;;;;;;;;;;;;;25.02;100.00;97557.47;5062204;28;20217;-79
2023/08/26 04:39:50;;;;;;;;;;;;;;;25.05;100.00;97573.13;5055887;28;19929;-79
2023/08/26 04:42:16;;;;;;;;;;;;;;;25.13;100.00;97591.22;5058055;28;19933;-79
2023/08/26 04:44:42;;;;;;;;;;;;;;;25.20;100.00;97597.59;5057297;28;19931;-81
2023/08/26 04:47:09;;;;;;;;;;;;;;;25.24;100.00;97601.19;5060430;28;19951;-79
2023/08/26 04:49:37;;;;;;;;;;;;;;;25.25;100.00;97613.66;5060560;28;19971;-79
2023/08/26 04:52:03;;;;;;;;;;;;;;;25.24;100.00;97612.13;5062129;28;19913;-79
2023/08/26 04:54:30;;;;;;;;;;;;;;;24.88;100.00;97606.41;5064776;28;19959;-79
2023/08/26 04:56:57;;;;;;;;;;;;;;;24.52;100.00;97616.63;5061454;28;19980;-79
2023/08/26 04:59:23;;;;;;;;;;;;;;;24.64;100.00;97623.88;5060530;28;19951;-79
2023/08/26 05:01:50;;;;;;;;;;;;;;;24.74;100.00;97626.03;5062164;28;19932;-79
2023/08/26 05:04:16;;;;;;;;;;;;;;;24.77;100.00;97628.03;5061186;28;19925;-79
2023/08/26 05:06:44;;;;;;;;;;;;;;;24.85;100.00;97634.44;5059478;28;19947;-80
2023/08/26 05:09:11;;;;;;;;;;;;;;;24.92;100.00;97632.63;5057084;28;19925;-80
2023/08/26 05:11:38;;;;;;;;;;;;;;;24.93;100.00;97619.75;5058218;28;19925;-80
2023/08/26 05:14:04;;;;;;;;;;;;;;;24.67;100.00;97613.00;5061305;28;19932;-80
2023/08/26 05:16:31;;;;;;;;;;;;;;;24.73;100.00;97611.56;5062819;28;20100;-80
2023/08/26 05:18:57;;;;;;;;;;;;;;;24.89;100.00;97610.69;5057612;28;19925;-80
2023/08/26 05:21:23;;;;;;;;;;;;;;;24.91;100.00;97601.00;5057495;28;20218;-80
2023/08/26 05:23:54;;;;;;;;;;;;;;;24.95;100.00;97614.72;5059500;28;19970;-80
2023/08/26 05:26:20;;;;;;;;;;;;;;;24.97;100.00;97610.47;5059968;28;19925;-80
2023/08/26 05:28:47;;;;;;;;;;;;;;;25.04;100.00;97609.78;5057681;28;19925;-80
2023/08/26 05:33:53;;;;;;;;;;;;;;;24.95;100.00;97593.66;5056194;28;19925;-80
2023/08/26 05:36:20;;;;;;;;;;;;;;;24.95;100.00;97601.03;5056896;28;19925;-80
2023/08/26 05:38:46;;;;;;;;;;;;;;;24.90;100.00;97593.16;5062767;28;19992;-80
2023/08/26 05:41:14;;;;;;;;;;;;;;;24.97;100.00;97607.75;5064659;28;19932;-80
2023/08/26 05:43:40;;;;;;;;;;;;;;;25.01;100.00;97605.06;5062338;28;19924;-80
2023/08/26 05:46:07;;;;;;;;;;;;;;;24.67;100.00;97604.81;5067062;28;19932;-80
2023/08/26 05:48:33;;;;;;;;;;;;;;;24.79;100.00;97609.31;5062120;28;19929;-80
2023/08/26 05:51:00;;;;;;;;;;;;;;;24.88;100.00;97612.63;5059403;28;19967;-80
2023/08/26 05:53:28;;;;;;;;;;;;;;;24.96;100.00;97608.91;5060219;28;19955;-80
2023/08/26 05:55:54;;;;;;;;;;;;;;;25.01;100.00;97615.97;5062683;28;19980;-80
2023/08/26 05:58:36;;;;;;;;;;;;;;;24.98;100.00;97611.25;5063273;28;19932;-80
2023/08/26 06:03:44;;;;;;;;;;;;;;;25.00;100.00;97601.56;5062251;28;19948;-79
2023/08/26 06:06:10;;;;;;;;;;;;;;;24.70;100.00;97604.09;5064385;28;19924;-79
2023/08/26 06:08:37;;;;;;;;;;;;;;;24.63;100.00;97606.69;5062645;28;19925;-80
2023/08/26 06:11:03;;;;;;;;;;;;;;;24.14;100.00;97594.78;5060634;28;20251;-80
2023/08/26 06:13:30;;;;;;;;;;;;;;;23.79;100.00;97583.13;5060172;28;19972;-80
2023/08/26 06:15:56;;;;;;;;;;;;;;;23.57;100.00;97590.84;5068187;28;19929;-80
2023/08/26 06:18:24;;;;;;;;;;;;;;;23.36;100.00;97582.16;5064020;28;19920;-79
2023/08/26 06:20:51;;;;;;;;;;;;;;;23.17;100.00;97589.44;5059593;28;20294;-79
2023/08/26 06:23:17;;;;;;;;;;;;;;;23.00;100.00;97583.22;5067691;28;19936;-79
2023/08/26 06:25:50;;;;;;;;;;;;;;;23.17;100.00;97590.25;5062614;28;19932;-79
2023/08/26 06:28:17;;;;;;;;;;;;;;;23.47;100.00;97593.31;5062135;28;19935;-79
2023/08/26 06:30:43;;;;;;;;;;;;;;;23.51;100.00;97594.97;5061075;28;19924;-79
2023/08/26 06:33:09;;;;;;;;;;;;;;;23.91;100.00;97602.09;5058725;28;19940;-79
2023/08/26 06:35:49;;;;;;;;;;;;;;;24.31;100.00;97599.84;5062038;28;19925;-80
2023/08/26 06:38:15;;;;;;;;;;;;;;;24.56;100.00;97595.66;5068473;28;19932;-79
2023/08/26 06:40:41;;;;;;;;;;;;;;;24.73;100.00;97608.84;5059995;28;19960;-79
2023/08/26 06:43:08;;;;;;;;;;;;;;;24.87;100.00;97611.06;5058687;28;19925;-79
2023/08/26 06:45:34;;;;;;;;;;;;;;;24.88;100.00;97617.34;5065058;28;19925;-79
2023/08/26 06:48:01;;;;;;;;;;;;;;;24.95;100.00;97614.72;5062438;28;19935;-79
2023/08/26 06:50:27;;;;;;;;;;;;;;;24.98;100.00;97608.53;5061685;28;19924;-79
2023/08/26 06:52:55;;;;;;;;;;;;;;;24.99;100.00;97616.38;5061816;28;19937;-79
2023/08/26 06:55:21;;;;;;;;;;;;;;;25.01;100.00;97602.31;5060970;28;19925;-79
2023/08/26 06:58:04;;;;;;;;;;;;;;;24.88;100.00;97615.38;5063685;28;19921;-79
2023/08/26 07:00:31;;;;;;;;;;;;;;;24.96;100.00;97602.63;5064890;28;19986;-79
2023/08/26 07:02:58;;;;;;;;;;;;;;;24.90;100.00;97606.81;5060661;28;19925;-79
2023/08/26 07:05:24;;;;;;;;;;;;;;;24.88;100.00;97617.34;5060834;28;19959;-79
2023/08/26 07:07:50;;;;;;;;;;;;;;;25.07;100.00;97622.72;5063954;28;19947;-79
2023/08/26 07:10:18;;;;;;;;;;;;;;;24.92;100.00;97629.09;5062605;28;19925;-79
2023/08/26 07:12:45;;;;;;;;;;;;;;;24.95;100.00;97628.38;5060235;28;20322;-79
2023/08/26 07:15:11;;;;;;;;;;;;;;;25.03;100.00;97627.34;5060849;28;19925;-79
2023/08/26 07:17:38;;;;;;;;;;;;;;;25.05;100.00;97620.38;5062069;28;19931;-79
2023/08/26 07:20:05;;;;;;;;;;;;;;;24.93;100.00;97612.34;5063125;28;20415;-79
2023/08/26 07:22:32;;;;;;;;;;;;;;;25.06;100.00;97602.03;5061653;28;19952;-80
2023/08/26 07:24:58;;;;;;;;;;;;;;;25.13;100.00;97607.59;5060211;28;19931;-80
2023/08/26 07:27:26;;;;;;;;;;;;;;;25.31;100.00;97603.25;5060036;28;19925;-79
2023/08/26 07:29:52;;;;;;;;;;;;;;;25.36;100.00;97602.91;5058773;28;19925;-80
2023/08/26 07:32:19;;;;;;;;;;;;;;;25.49;100.00;97614.47;5059231;28;19929;-80
2023/08/26 07:34:45;;;;;;;;;;;;;;;25.46;100.00;97605.03;5061423;28;19951;-80
2023/08/26 07:37:12;;;;;;;;;;;;;;;25.57;100.00;97611.47;5060491;28;19925;-80
2023/08/26 07:39:39;;;;;;;;;;;;;;;25.57;100.00;97600.53;5059044;28;19931;-79
2023/08/26 07:42:05;;;;;;;;;;;;;;;25.53;100.00;97609.84;5057913;28;19956;-79
2023/08/26 07:44:33;;;;;;;;;;;;;;;25.48;100.00;97604.66;5058835;28;19989;-80
2023/08/26 07:47:01;;;;;;;;;;;;;;;25.41;100.00;97608.06;5065870;28;19926;-80
2023/08/26 07:49:27;;;;;;;;;;;;;;;25.47;100.00;97616.78;5059278;28;19952;-79
2023/08/26 07:51:53;;;;;;;;;;;;;;;25.31;100.00;97611.44;5061281;28;19925;-79
2023/08/26 07:54:20;;;;;;;;;;;;;;;25.49;100.00;97607.06;5061323;28;20293;-79
2023/08/26 07:56:46;;;;;;;;;;;;;;;25.36;100.00;97611.13;5051951;28;19929;-80
2023/08/26 07:59:13;;;;;;;;;;;;;;;25.40;100.00;97611.19;5064527;28;19953;-80
2023/08/26 08:01:51;;;;;;;;;;;;;;;25.32;100.00;97613.00;5056997;28;19925;-78
2023/08/26 08:04:17;;;;;;;;;;;;;;;25.25;100.00;97604.72;5060853;28;19931;-80
2023/08/26 08:06:44;;;;;;;;;;;;;;;25.30;100.00;97611.78;5057896;28;19932;-80
2023/08/26 08:09:10;;;;;;;;;;;;;;;25.32;100.00;97613.00;5058324;28;20123;-79
2023/08/26 08:11:37;;;;;;;;;;;;;;;25.32;100.00;97613.00;5058420;28;19921;-79
2023/08/26 08:14:03;;;;;;;;;;;;;;;25.34;100.00;97612.66;5062212;28;19952;-80
2023/08/26 08:16:30;;;;;;;;;;;;;;;25.30;100.00;97609.84;5066193;28;19951;-79
2023/08/26 08:18:57;;;;;;;;;;;;;;;25.40;100.00;97611.19;5059668;28;19925;-79
2023/08/26 08:21:24;;;;;;;;;;;;;;;25.60;100.00;97618.94;5070993;28;19925;-78
2023/08/26 08:23:51;;;;;;;;;;;;;;;25.61;100.00;97620.53;5057744;28;19988;-78
2023/08/26 08:26:17;;;;;;;;;;;;;;;25.55;100.00;97621.22;5057979;28;19925;-78
2023/08/26 08:28:44;;;;;;;;;;;;;;;25.53;100.00;97624.28;5060128;28;19976;-78
2023/08/26 08:31:10;;;;;;;;;;;;;;;25.58;100.00;97615.00;5060215;28;19939;-79
2023/08/26 08:33:37;;;;;;;;;;;;;;;25.48;100.00;97602.72;5059604;28;19924;-78
2023/08/26 08:36:05;;;;;;;;;;;;;;;25.59;100.00;97616.59;5057824;28;19936;-77
2023/08/26 08:38:32;;;;;;;;;;;;;;;25.51;100.00;97601.22;5056661;28;19952;-78
2023/08/26 08:40:59;;;;;;;;;;;;;;;25.50;100.00;97600.41;5063114;28;19979;-78
2023/08/26 08:43:30;;;;;;;;;;;;;;;25.43;100.00;97616.72;5061419;28;19925;-78
2023/08/26 08:45:57;;;;;;;;;;;;;;;25.57;100.00;97611.47;5062066;28;19950;-78
2023/08/26 08:48:24;;;;;;;;;;;;;;;25.52;100.00;97608.28;5059747;28;19924;-78
2023/08/26 08:50:50;;;;;;;;;;;;;;;25.76;100.00;97605.09;5057871;28;19921;-78
2023/08/26 08:53:23;;;;;;;;;;;;;;;25.70;100.00;97614.78;5057558;28;19960;-78
2023/08/26 08:55:50;;;;;;;;;;;;;;;25.84;100.00;97603.28;5059587;28;19925;-78
2023/08/26 08:58:17;;;;;;;;;;;;;;;25.84;100.00;97612.28;5059615;28;19997;-78
2023/08/26 09:00:44;;;;;;;;;;;;;;;25.50;100.00;97616.06;5057579;28;19947;-78
2023/08/26 09:03:10;;;;;;;;;;;;;;;25.47;100.00;97617.53;5057929;28;19971;-79
2023/08/26 09:05:38;;;;;;;;;;;;;;;25.57;100.00;97611.47;5057696;28;20229;-79
2023/08/26 09:08:07;;;;;;;;;;;;;;;25.84;100.00;97600.53;5060870;28;20008;-78
2023/08/26 09:10:35;;;;;;;;;;;;;;;26.03;100.00;97611.31;5059807;28;19936;-79
2023/08/26 09:13:03;;;;;;;;;;;;;;;25.95;100.00;97617.88;5060330;28;19929;-78
2023/08/26 09:15:30;;;;;;;;;;;;;;;25.89;100.00;97611.94;5064285;28;19925;-78
2023/08/26 09:18:11;;;;;;;;;;;;;;;25.81;100.00;97606.75;5064722;28;19947;-77
2023/08/26 09:20:39;;;;;;;;;;;;;;;25.80;100.00;97603.22;5062047;28;19925;-78
2023/08/26 09:23:08;;;;;;;;;;;;;;;25.89;100.00;97608.41;5061415;28;20361;-78
2023/08/26 09:25:36;;;;;;;;;;;;;;;25.94;100.00;97608.88;5062597;28;19948;-78
2023/08/26 09:28:04;;;;;;;;;;;;;;;25.93;100.00;97601.84;5064807;28;19924;-78
2023/08/26 09:30:30;;;;;;;;;;;;;;;25.71;100.00;97603.50;5064324;28;19925;-78
2023/08/26 09:32:56;;;;;;;;;;;;;;;25.77;100.00;97612.97;5061064;28;19936;-78
2023/08/26 09:35:23;;;;;;;;;;;;;;;25.93;100.00;97618.25;5061199;28;19948;-78
2023/08/26 09:37:56;;;;;;;;;;;;;;;25.97;100.00;97608.13;5063966;28;19983;-77
2023/08/26 09:40:23;;;;;;;;;;;;;;;26.06;100.00;97597.69;5063282;28;19963;-78
2023/08/26 09:42:51;;;;;;;;;;;;;;;26.09;100.00;97598.94;5060108;28;19932;-78
2023/08/26 09:45:18;;;;;;;;;;;;;;;26.00;100.00;97595.66;5062387;28;19963;-78
2023/08/26 09:47:46;;;;;;;;;;;;;;;25.96;100.00;97592.91;5064224;28;19929;-78
2023/08/26 09:50:12;;;;;;;;;;;;;;;26.00;100.00;97590.19;5071105;28;19921;-78
2023/08/26 09:52:43;;;;;;;;;;;;;;;25.98;100.00;97589.78;5061417;28;19966;-78
2023/08/26 09:55:10;;;;;;;;;;;;;;;26.15;100.00;97597.44;5059269;28;19929;-78
2023/08/26 09:57:36;;;;;;;;;;;;;;;26.25;100.00;97585.84;5061153;28;19925;-77
2023/08/26 10:00:05;;;;;;;;;;;;;;;26.17;100.00;97592.41;5063898;28;19925;-78
2023/08/26 10:02:33;;;;;;;;;;;;;;;26.10;100.00;97590.34;5062946;28;19972;-78
2023/08/26 10:05:04;;;;;;;;;;;;;;;26.11;100.00;97591.91;5060541;28;19925;-78
2023/08/26 10:07:31;;;;;;;;;;;;;;;26.38;100.00;97589.13;5059852;28;20394;-78
2023/08/26 10:10:00;;;;;;;;;;;;;;;26.63;100.00;97598.41;5063215;28;19925;-79
2023/08/26 10:12:31;;;;;;;;;;;;;;;26.55;100.00;97588.53;5062475;28;19925;-77
2023/08/26 10:15:00;;;;;;;;;;;;;;;26.70;100.00;97585.59;5060936;28;19925;-79
2023/08/26 10:17:30;;;;;;;;;;;;;;;26.33;100.00;97571.09;5069779;28;19925;-78
2023/08/26 10:19:56;;;;;;;;;;;;;;;26.56;100.00;97577.19;5065641;28;19951;-78
2023/08/26 10:22:24;;;;;;;;;;;;;;;26.99;100.00;97569.41;5066510;28;19925;-79
2023/08/26 10:24:50;;;;;;;;;;;;;;;26.89;100.00;97581.09;5062331;28;19968;-78
2023/08/26 10:27:18;;;;;;;;;;;;;;;26.91;100.00;97565.84;5061546;28;19925;-78
2023/08/26 10:29:45;;;;;;;;;;;;;;;27.08;100.00;97567.16;5061866;28;19925;-78
2023/08/26 10:32:15;;;;;;;;;;;;;;;27.41;100.00;97564.28;5062055;28;20037;-78
2023/08/26 10:34:54;;;;;;;;;;;;;;;27.62;100.00;97564.44;5061074;28;19928;-78
2023/08/26 10:37:20;;;;;;;;;;;;;;;27.64;100.00;97553.06;5058788;28;19932;-78
2023/08/26 10:39:47;;;;;;;;;;;;;;;27.35;100.00;97544.66;5061585;28;19997;-79
2023/08/26 10:42:14;;;;;;;;;;;;;;;27.03;100.00;97529.13;5061979;28;19952;-79
2023/08/26 10:44:42;;;;;;;;;;;;;;;26.96;100.00;97524.38;5059643;28;19951;-79
2023/08/26 10:47:09;;;;;;;;;;;;;;;26.71;100.00;97512.38;5063406;28;19926;-78
2023/08/26 10:52:18;;;;;;;;;;;;;;;26.79;100.00;97512.09;5062244;28;19956;-80
2023/08/26 10:54:45;;;;;;;;;;;;;;;26.61;100.00;97505.66;5059936;28;19912;-80
2023/08/26 10:57:11;;;;;;;;;;;;;;;26.50;100.00;97510.25;5058104;28;19925;-79
2023/08/26 10:59:40;;;;;;;;;;;;;;;26.54;100.00;97507.53;5060939;28;19928;-79
2023/08/26 11:02:07;;;;;;;;;;;;;;;26.37;100.00;97505.44;5062860;28;19932;-79
2023/08/26 11:04:34;;;;;;;;;;;;;;;26.27;100.00;97501.41;5061276;28;19951;-80
2023/08/26 11:07:00;;;;;;;;;;;;;;;26.18;100.00;97495.44;5059177;28;19925;-79
2023/08/26 11:09:29;;;;;;;;;;;;;;;26.22;100.00;97505.25;5059661;28;19932;-79
2023/08/26 11:11:55;;;;;;;;;;;;;;;26.40;100.00;97491.75;5062109;28;19924;-79
2023/08/26 11:14:30;;;;;;;;;;;;;;;26.70;100.00;97489.69;5061673;28;19932;-79
2023/08/26 11:16:56;;;;;;;;;;;;;;;26.51;100.00;97486.38;5062111;28;19932;-78
2023/08/26 11:19:23;;;;;;;;;;;;;;;26.14;100.00;97478.16;5054394;28;20008;-79
2023/08/26 11:21:49;;;;;;;;;;;;;;;26.23;100.00;97493.16;5062621;28;19970;-77
2023/08/26 11:24:16;;;;;;;;;;;;;;;26.17;100.00;97508.34;5070022;28;19967;-79
2023/08/26 11:26:48;;;;;;;;;;;;;;;26.09;100.00;97512.13;5060577;28;19951;-79
2023/08/26 11:29:14;;;;;;;;;;;;;;;26.17;100.00;97510.28;5059649;28;19925;-79
2023/08/26 11:31:41;;;;;;;;;;;;;;;26.08;100.00;97491.41;5062305;28;19925;-78
2023/08/26 11:34:07;;;;;;;;;;;;;;;26.10;100.00;97491.81;5062866;28;20547;-78
2023/08/26 11:36:35;;;;;;;;;;;;;;;26.11;100.00;97481.66;5060172;28;19925;-78
2023/08/26 11:39:01;;;;;;;;;;;;;;;26.11;100.00;97481.66;5060353;28;19947;-76
2023/08/26 11:41:28;;;;;;;;;;;;;;;26.21;100.00;97481.78;5060041;28;19925;-77
2023/08/26 11:43:55;;;;;;;;;;;;;;;26.15;100.00;97490.69;5062949;28;19925;-78
2023/08/26 11:46:22;;;;;;;;;;;;;;;26.09;100.00;97486.72;5066608;28;19947;-78
2023/08/26 11:48:49;;;;;;;;;;;;;;;26.23;100.00;97490.41;5058394;28;19921;-78
2023/08/26 11:51:15;;;;;;;;;;;;;;;26.30;100.00;97495.94;5058108;28;19975;-78
2023/08/26 11:53:42;;;;;;;;;;;;;;;26.50;100.00;97491.06;5061125;28;19925;-79
2023/08/26 11:56:08;;;;;;;;;;;;;;;26.52;100.00;97479.75;5060972;28;19921;-77
2023/08/26 11:58:36;;;;;;;;;;;;;;;26.51;100.00;97478.16;5061085;28;19970;-78
2023/08/26 12:01:05;;;;;;;;;;;;;;;26.37;100.00;97473.34;5057168;28;19925;-78
2023/08/26 12:03:31;;;;;;;;;;;;;;;26.60;100.00;97476.69;5059157;28;19971;-78
2023/08/26 12:05:57;;;;;;;;;;;;;;;26.69;100.00;97473.63;5060697;28;19982;-77
2023/08/26 12:08:24;;;;;;;;;;;;;;;26.50;100.00;97469.16;5061563;28;19929;-78
2023/08/26 12:10:51;;;;;;;;;;;;;;;26.65;100.00;97467.31;5058429;28;19925;-78
2023/08/26 12:13:17;;;;;;;;;;;;;;;26.81;100.00;97465.94;5057224;28;19925;-79
2023/08/26 12:15:44;;;;;;;;;;;;;;;26.94;100.00;97471.13;5064505;28;19955;-78
2023/08/26 12:18:12;;;;;;;;;;;;;;;27.04;100.00;97459.44;5062158;28;19948;-78
2023/08/26 12:20:40;;;;;;;;;;;;;;;27.01;100.00;97458.25;5059577;28;19970;-78
2023/08/26 12:23:08;;;;;;;;;;;;;;;26.74;100.00;97460.38;5057302;28;19979;-78
2023/08/26 12:25:35;;;;;;;;;;;;;;;26.56;100.00;97447.69;5058086;28;19956;-78
2023/08/26 12:28:05;;;;;;;;;;;;;;;26.58;100.00;97451.66;5068864;28;19992;-78
2023/08/26 12:30:32;;;;;;;;;;;;;;;26.61;100.00;97450.09;5060852;28;19920;-78
2023/08/26 12:33:00;;;;;;;;;;;;;;;26.56;100.00;97453.97;5056903;28;19920;-78
2023/08/26 12:35:29;;;;;;;;;;;;;;;26.45;100.00;97452.28;5057055;28;19956;-78
2023/08/26 12:37:56;;;;;;;;;;;;;;;26.38;100.00;97444.00;5060321;28;20023;-78
2023/08/26 12:40:34;;;;;;;;;;;;;;;26.31;100.00;97444.72;5061863;28;19924;-79
2023/08/26 12:43:00;;;;;;;;;;;;;;;26.58;100.00;97446.16;5058271;28;19925;-78